Vistas del Atlantico, Puerto Rico
Current Conditions -  °F | °C
As of 1:50 PM on Friday 28 Nov 2014 (Local Time) from TJBQ Reporting Station
Scattered Clouds Scattered Clouds  
Wind Chill: 82°   Ceiling: Unl
Heat Index: 86°   Visibility: 10mi
Dew Point: 70°   Wind: 13mph
Humidity: 66%   Direction: 50°NE
Pressure: 29.93"   Gusts: NA
Location:  18.4951°N, 67.0273°W
Report Text: TJBQ 281750Z 05011KT 10SM SCT025 28/21 A2993 RMK RWY08 ATIS W
Loading
Personal Weather Stations






























Interactive Weather Map New forecast layout! Learn more

10-Day Weather Forecast

Advertisements
Track Severe Weather on mobile